This is the latest recevied weather packets stored in our database for station/object N8ESC. If no packets are shown the sender has not sent any weather packets the latest 10 day(s).
| Time | Temp. | Humidity | Pressure | Rain* | Wind** | Luminosity | Snow |
|---|---|---|---|---|---|---|---|
| 1777845297 | 15.56° C | 64% | 998.6 hPa | 0 mm | - | 470 W/m² | - |
| 1777844994 | 15.56° C | 64% | 998.7 hPa | 0 mm | - | 493 W/m² | - |
| 1777844692 | 15.56° C | 66% | 998.6 hPa | 0 mm | - | 515 W/m² | - |
| 1777844389 | 15° C | 68% | 998.8 hPa | 0 mm | - | 532 W/m² | - |
| 1777844088 | 15.56° C | 67% | 998.9 hPa | 0 mm | - | 539 W/m² | - |
| 1777843783 | 15° C | 66% | 999 hPa | 0 mm | - | 127 W/m² | - |
| 1777843481 | 15° C | 63% | 998.9 hPa | 0 mm | - | 150 W/m² | - |
| 1777843178 | 13.89° C | 70% | 999.2 hPa | 1.27 mm | - | 823 W/m² | - |
| 1777842875 | 13.33° C | 68% | 999.7 hPa | 1.27 mm | - | 292 W/m² | - |
| 1777842570 | 13.33° C | 64% | 999.8 hPa | 0 mm | - | 18 W/m² | - |
| 1777842268 | 13.89° C | 63% | 999.3 hPa | 0 mm | - | 28 W/m² | - |
| 1777841962 | 13.89° C | 62% | 999.1 hPa | 0 mm | - | 78 W/m² | - |
| 1777841660 | 13.89° C | 61% | 999 hPa | 0 mm | - | 74 W/m² | - |
| 1777841356 | 13.89° C | 65% | 999.2 hPa | 0 mm | - | 58 W/m² | - |
| 1777841053 | 13.33° C | 68% | 999.4 hPa | 0 mm | - | 90 W/m² | - |
| 1777840750 | 12.78° C | 71% | 999.6 hPa | 0 mm | - | 102 W/m² | - |
| 1777840448 | 12.78° C | 68% | 999.3 hPa | 0 mm | - | 71 W/m² | - |
| 1777840144 | 12.78° C | 69% | 999.5 hPa | 0 mm | - | 30 W/m² | - |
| 1777839843 | 12.78° C | 67% | 999.2 hPa | 0 mm | - | 47 W/m² | - |
| 1777839541 | 12.78° C | 70% | 999.2 hPa | 0 mm | - | 42 W/m² | - |
| 1777839237 | 13.33° C | 68% | 999 hPa | 0 mm | - | 55 W/m² | - |
| 1777838935 | 13.89° C | 64% | 998.9 hPa | 0 mm | - | 93 W/m² | - |
| 1777838630 | 14.44° C | 60% | 998.9 hPa | 0 mm | - | 95 W/m² | - |
| 1777838328 | 16.11° C | 55% | 998.7 hPa | 0 mm | - | 228 W/m² | - |
| 1777838024 | 16.11° C | 53% | 998.9 hPa | 0 mm | - | 685 W/m² | - |
* Rain latest hour (hover to see other rain measurements)
** Current wind speed in m/s (hover to see current wind gust speed)